• Join FlightAware (Why Join?)
  • Login
  • US Flag 
01:22PM EDT


 

Airport Tracker/Info


-or-


 

Live Flight TrackerFlight Track Log ✈ SWA1046 ✈ 29-Apr-2013 ✈ KMDW - KRSW

Flight Track Log - Related Links

Times and Time Zones

All times are in EDT time to prevent confusion due to time zone crossing. See the SWA1046 flight status page for this flight to view local times or setup timezone preferences in your user account.

Time Position Orientation Groundspeed Altitude Reporting Facility
EDT Latitude Longitude Course Direction KTS MPH feet Rate Location/Type
08:31PM 41.7458 -87.8025 160° South 175 201 3,300  Level Chicago Center
08:33PM 41.6850 -87.8219 193° South 219 252 5,800 2,760 Climbing Chicago Center
08:34PM 41.6111 -87.8372 189° South 259 298 9,100 3,720 Climbing Chicago Center
08:35PM 41.5156 -87.8569 189° South 289 333 13,500 3,900 Climbing Chicago Center
08:36PM 41.4267 -87.8744 188° South 316 364 17,200 3,240 Climbing Chicago Center
08:37PM 41.1364 -87.4423 160° South  Level Estimated
08:37PM 41.3308 -87.8853 185° South 338 389 20,300  Level Chicago Center
08:38PM 41.2233 -87.8931 183° South 378 435 23,100 2,220 Climbing Chicago Center
08:39PM 41.1064 -87.8811 176° South 418 481 24,900 1,800 Climbing Chicago Center
08:40PM 40.9831 -87.8464 168° South 452 520 26,900 2,100 Climbing Chicago Center
08:41PM 40.8544 -87.8131 169° South 468 539 29,300 2,580 Climbing Chicago Center
08:42PM 40.7031 -87.7744 169° South 464 534 32,300 2,460 Climbing Chicago Center
08:43PM 40.5775 -87.7425 169° South 462 532 34,400 2,040 Climbing Chicago Center
08:44PM 40.4544 -87.7094 168° South 456 525 36,600 2,220 Climbing Chicago Center
08:45PM 40.3522 -87.6872 171° South 452 520 38,300 1,740 Climbing Indianapolis Center
08:46PM 40.2325 -87.6567 169° South 439 505 39,700 1,080 Climbing Indianapolis Center
08:47PM 40.1100 -87.6264 169° South 444 511 40,600 600 Climbing Indianapolis Center
08:48PM 39.9881 -87.5842 165° South 450 518 41,000 180 Climbing Indianapolis Center
08:49PM 39.8633 -87.5381 164° South 460 529 41,000  Level Indianapolis Center
08:50PM 39.7433 -87.4922 164° South 452 520 41,000  Level Indianapolis Center
08:51PM 39.6225 -87.4467 164° South 450 518 41,000  Level Indianapolis Center
08:52PM 39.5019 -87.4022 164° South 450 518 41,000  Level Indianapolis Center
08:53PM 39.3600 -87.3486 164° South 454 522 41,000  Level Indianapolis Center
08:54PM 39.2383 -87.3036 164° South 454 522 41,000  Level Indianapolis Center
08:55PM 39.1169 -87.2586 164° South 451 519 41,000  Level Indianapolis Center
08:56PM 39.0078 -87.2197 165° South 448 516 41,000  Level Indianapolis Center
08:57PM 38.8861 -87.1742 164° South 453 521 41,000  Level Indianapolis Center
08:58PM 38.7661 -87.1303 164° South 447 514 41,000  Level Indianapolis Center
08:59PM 38.6464 -87.0869 164° South 445 512 41,000  Level Indianapolis Center
09:00PM 38.5031 -87.0356 164° South 442 509 41,000  Level Indianapolis Center
09:01PM 38.3981 -86.9975 164° South 441 507 41,000  Level Indianapolis Center
09:02PM 38.2781 -86.9539 164° South 445 512 41,000  Level Indianapolis Center
09:03PM 38.1597 -86.9125 165° South 445 512 41,000  Level Indianapolis Center
09:04PM 38.0400 -86.8700 164° South 442 509 41,000  Level Indianapolis Center
09:05PM 37.8978 -86.8197 164° South 438 504 41,000  Level Indianapolis Center
09:06PM 37.7797 -86.7772 164° South 438 504 41,000  Level Indianapolis Center
09:07PM 37.6619 -86.7372 165° South 437 503 41,000  Level Indianapolis Center
09:08PM 37.5433 -86.6961 165° South 440 506 41,000  Level Indianapolis Center
09:09PM 37.4347 -86.6578 164° South 438 504 41,000  Level Indianapolis Center
09:10PM 37.3164 -86.6169 165° South 437 503 41,000  Level Indianapolis Center
09:11PM 37.1764 -86.5656 164° South 441 507 41,000  Level Indianapolis Center
09:12PM 37.0539 -86.5256 165° South 439 505 41,000  Level Memphis Center
09:13PM 36.9339 -86.4819 164° South 439 505 41,000  Level Memphis Center
09:14PM 36.8181 -86.4408 164° South 439 505 41,000  Level Memphis Center
09:15PM 36.6978 -86.4003 165° South 444 511 41,000  Level Memphis Center
09:16PM 36.5797 -86.3594 164° South 444 511 41,000  Level Memphis Center
09:17PM 36.4722 -86.3236 165° South 444 511 41,000  Level Memphis Center
09:18PM 36.3522 -86.2806 164° South 444 511 41,000  Level Memphis Center
09:19PM 36.2319 -86.2403 165° South 444 511 41,000  Level Memphis Center
09:21PM 35.9567 -86.1500 165° South 446 513 41,000  Level Atlanta Center
09:22PM 35.8364 -86.1083 164° South 451 519 41,000  Level Atlanta Center
09:23PM 35.7142 -86.0694 166° South 451 519 41,000  Level Atlanta Center
09:24PM 35.5936 -86.0308 165° South 451 519 41,000  Level Atlanta Center
09:25PM 35.4733 -85.9897 164° South 451 519 41,000  Level Atlanta Center
09:26PM 35.3531 -85.9486 164° South 451 519 41,000  Level Atlanta Center
09:27PM 35.2325 -85.9103 165° South 451 519 41,000  Level Atlanta Center
09:28PM 35.1142 -85.8719 165° South 451 519 41,000  Level Atlanta Center
09:29PM 34.9958 -85.8339 165° South 451 519 41,000  Level Atlanta Center
09:30PM 34.8733 -85.7908 164° South 451 519 41,000  Level Atlanta Center
09:31PM 34.7528 -85.7528 165° South 451 519 41,000  Level Atlanta Center
09:32PM 34.6322 -85.7125 165° South 451 519 41,000  Level Atlanta Center
09:33PM 34.5117 -85.6772 166° South 451 519 41,000  Level Atlanta Center
09:34PM 34.3892 -85.6347 164° South 451 519 41,000  Level Atlanta Center
09:35PM 34.2708 -85.5972 165° South 446 513 41,000  Level Atlanta Center
09:36PM 34.1606 -85.5625 165° South 452 520 41,000  Level Atlanta Center
09:37PM 34.0378 -85.5228 165° South 452 520 41,000  Level Atlanta Center
09:38PM 33.9153 -85.4831 165° South 452 520 41,000  Level Atlanta Center
09:39PM 33.7944 -85.4461 166° South 452 520 41,000  Level Atlanta Center
09:40PM 33.6739 -85.4092 166° South 452 520 41,000  Level Atlanta Center
09:41PM 33.5533 -85.3700 165° South 447 514 41,000  Level Atlanta Center
09:42PM 33.4347 -85.3308 165° South 447 514 41,000  Level Atlanta Center
09:43PM 33.3119 -85.2917 165° South 453 521 41,000  Level Atlanta Center
09:44PM 33.1956 -85.2553 165° South 447 514 41,000  Level Atlanta Center
09:45PM 33.0728 -85.2189 166° South 447 514 41,000  Level Atlanta Center
09:46PM 32.9458 -85.1725 163° South 447 514 41,000  Level Atlanta Center
09:47PM 32.8250 -85.1339 165° South 447 514 41,000  Level Atlanta Center
09:48PM 32.7106 -85.0906 162° South 453 521 41,000  Level Atlanta Center
09:49PM 32.5919 -85.0472 163° South 447 514 41,000  Level Atlanta Center
09:50PM 32.4672 -85.0064 165° South 452 520 41,000  Level Atlanta Center
09:51PM 32.3422 -84.9658 165° South 457 526 41,000  Level Atlanta Center
09:52PM 32.2297 -84.9300 165° South 452 520 41,000  Level Atlanta Center
09:53PM 32.1069 -84.8922 165° South 446 513 41,000  Level Atlanta Center
09:55PM 31.9264 -84.8264 163° South 463 533 41,000  Level Jacksonville Center
09:56PM 31.8036 -84.7872 165° South 455 524 41,000  Level Jacksonville Center
09:58PM 31.6309 -84.7274 164° South  Level FlightAware Approximate
09:58PM 31.5647 -84.7067 164° South 450 518 41,000  Level Jacksonville Center
09:59PM 31.4442 -84.6678 165° South 450 518 41,000  Level Jacksonville Center
10:00PM 31.3258 -84.6267 163° South 450 518 41,000  Level Jacksonville Center
10:01PM 31.2072 -84.5906 165° South 450 518 41,000  Level Jacksonville Center
10:02PM 31.0908 -84.5519 164° South 445 512 41,000  Level Jacksonville Center
10:03PM 30.9769 -84.4894 155° Southeast 445 512 41,000  Level Jacksonville Center
10:04PM 30.8606 -84.4317 157° South 445 512 41,000  Level Jacksonville Center
10:05PM 30.7444 -84.3694 155° Southeast 453 521 41,000  Level Jacksonville Center
10:06PM 30.6322 -84.3122 156° South 453 521 41,000 -60 Level Jacksonville Center
10:07PM 30.5286 -84.2553 155° Southeast 453 521 40,900 -60 Descending Jacksonville Center
10:08PM 30.4122 -84.1956 156° South 459 528 40,900  Level Jacksonville Center
10:09PM 30.2958 -84.1364 156° South 453 521 40,900  Level Jacksonville Center
10:10PM 30.1797 -84.0772 156° South 453 521 40,900  Level Jacksonville Center
10:11PM 30.0611 -84.0181 157° South 459 528 40,900  Level Jacksonville Center
10:12PM 29.9447 -83.9544 155° Southeast 464 534 40,900  Level Jacksonville Center
10:13PM 29.8242 -83.8933 156° South 464 534 40,900  Level Jacksonville Center
10:14PM 29.7014 -83.8322 157° South 469 540 41,000  Climbing Jacksonville Center
10:15PM 29.5786 -83.7714 157° South 475 547 41,000  Level Jacksonville Center
10:16PM 29.4603 -83.7083 155° Southeast 475 547 41,000 -300 Level Jacksonville Center
10:17PM 29.3353 -83.6478 157° South 475 547 40,400 -840 Descending Jacksonville Center
10:18PM 29.2144 -83.5872 156° South 475 547 39,400 -900 Descending Jacksonville Center
10:19PM 29.0939 -83.5222 155° Southeast 470 541 38,600 -1,380 Descending Jacksonville Center
10:20PM 28.9708 -83.4644 158° South 476 548 36,700 -1,920 Descending Jacksonville Center
10:22PM 28.7339 -83.3433 156° South 465 535 33,000 -1,440 Descending Miami Center
10:23PM 28.6133 -83.2844 157° South 465 535 32,500 -840 Descending Miami Center
10:24PM 28.4747 -83.2175 157° South 480 552 31,300 -1,080 Descending Miami Center
10:25PM 28.3503 -83.1561 157° South 487 560 30,400 -1,020 Descending Miami Center
10:26PM 28.2297 -83.0953 156° South 487 560 29,300 -1,440 Descending Miami Center
10:27PM 28.1114 -83.0369 156° South 482 555 27,500 -1,200 Descending Miami Center
10:28PM 27.9950 -82.9814 157° South 465 535 27,000 -300 Descending Miami Center
10:29PM 27.8761 -82.9303 159° South 460 529 27,000 -480 Level Miami Center
10:30PM 27.7636 -82.8772 157° South 455 524 26,100 -1,020 Descending Miami Center
10:31PM 27.6531 -82.8294 159° South 445 512 25,000 -1,080 Descending Miami Center
10:32PM 27.5506 -82.7842 159° South 418 481 24,000 -1,020 Descending Miami Center
10:33PM 27.4583 -82.7444 159° South 401 461 23,000 -1,140 Descending Miami Center
10:34PM 27.3497 -82.6944 158° South 394 453 21,800 -1,080 Descending Miami Center
10:35PM 27.2486 -82.6661 166° South 382 440 20,900 -960 Descending Miami Center
10:36PM 27.1469 -82.6492 172° South 375 432 19,900 -1,320 Descending Miami Center
10:37PM 27.0664 -82.5800 143° Southeast 357 411 18,400 -1,860 Descending Miami Center
10:38PM 26.9942 -82.5019 136° Southeast 357 411 16,200 -2,100 Descending Miami Center
10:39PM 26.9261 -82.4264 135° Southeast 357 411 14,200 -2,040 Descending Miami Center
10:40PM 26.8581 -82.3511 135° Southeast 352 405 12,200 -1,560 Descending Miami Center
10:41PM 26.7939 -82.2828 136° Southeast 342 394 11,100 -1,380 Descending Miami Center
10:42PM 26.7289 -82.2311 145° Southeast 313 360 9,500 -1,620 Descending Miami Center
10:43PM 26.6642 -82.1817 146° Southeast 300 345 7,900 -1,440 Descending Miami Center
10:44PM 26.6011 -82.1322 145° Southeast 285 328 6,600 -1,200 Descending Miami Center
10:45PM 26.5533 -82.0722 132° Southeast 268 308 5,600 -1,080 Descending Miami Center
10:46PM 26.5175 -82.0194 127° Southeast 239 275 4,500 -1,140 Descending Miami Center
10:48PM 26.4331 -81.9002 42° Northeast  Level FlightAware Approximate
10:55PM 26.5333 -81.7500 50° Northeast  Level FlightAware Approximate
10:56PM 26.5362 -81.7552 50° Northeast  Level Estimated
10:57PM 26.5333 -81.7500 50° Northeast  Level FlightAware Approximate
10:58PM 26.5362 -81.7552 50° Northeast  Level Estimated
10:59PM 26.5333 -81.7500 50° Northeast  Level FlightAware Approximate
11:00PM 26.5362 -81.7552 50° Northeast  Level Estimated
11:01PM 26.5333 -81.7500 50° Northeast  Level FlightAware Approximate